Latest Weather Observations for The Monument

IDQ60801

Issued at 2:32 pm EST Thursday 19 January 2017 (issued every 30 minutes, with the page automatically refreshed every 10 minutes)

About weather observations | Map of weather stations | Latest weather observations for QLD | Other Formats
Station Details ID: 037034 Name: THE MONUMENT AIRPORT Lat: -21.81 Lon: 139.93 Height: 288.4 m
Data from the previous 72 hours. | See also: Recent months at The Monument
Date/Time
EST
Temp
°C
App
Temp
°C
Dew
Point
°C
Rel
Hum
%
Delta-T
°C
Wind Press
QNH
hPa
Press
MSL
hPa
Rain since
9am
mm
Dir  Spd
km/h
Gust
km/h
Spd
kts
Gust
kts
19/02:00pm 35.0 38.2 21.6 45 9.2 NNE 7 11 4 6 1008.8 1006.5 0.6
19/01:46pm 31.9 32.4 19.2 47 8.4 NNE 15 24 8 13 1009.0 1006.7 0.6
19/01:30pm 37.2 39.0 18.7 33 12.3 N 7 19 4 10 1009.1 1006.8 0.0
19/01:00pm 36.8 37.7 18.4 34 12.2 NNW 11 20 6 11 1009.7 1007.4 0.0
19/12:30pm 35.3 36.6 19.2 38 10.7 NW 11 24 6 13 1010.2 1007.9 0.0
19/12:00pm 34.6 34.8 19.4 40 10.2 NW 17 26 9 14 1010.5 1008.2 0.0
19/11:30am 35.1 36.4 20.2 41 10.1 NNW 13 24 7 13 1010.9 1008.6 0.0
19/11:00am 34.7 36.1 21.0 44 9.3 W 15 26 8 14 1011.3 1009.0 0.0
19/10:30am 33.4 34.3 20.9 48 8.5 WNW 17 28 9 15 1011.7 1009.4 0.0
19/10:00am 32.9 34.1 21.4 50 7.9 WNW 17 24 9 13 1011.8 1009.5 0.0
19/09:30am 32.6 34.0 21.1 50 7.8 W 15 22 8 12 1012.1 1009.8 0.0
19/09:00am 31.7 32.6 21.5 54 7.0 WNW 19 24 10 13 1012.1 1009.8 0.0
19/08:30am 31.4 32.3 21.6 56 6.7 WNW 19 26 10 14 1012.2 1009.9 0.0
19/08:00am 30.2 31.1 21.6 60 5.8 NW 19 24 10 13 1012.4 1010.2 0.0
19/07:30am 29.4 31.4 21.6 63 5.3 NNW 13 20 7 11 1012.6 1010.4 0.0
19/07:00am 28.3 31.7 21.6 67 4.5 N 6 13 3 7 1012.2 1009.9 0.0
19/06:30am 27.1 29.9 21.6 72 3.7 N 9 11 5 6 1011.7 1009.4 0.0
19/06:00am 27.1 31.4 21.2 70 4.0 CALM 0 0 0 0 1011.4 1009.1 0.0
19/05:30am 28.1 31.2 21.4 67 4.5 NW 7 9 4 5 1011.0 1008.7 0.0
19/05:00am 27.8 30.7 21.1 67 4.5 NNW 7 9 4 5 1010.8 1008.5 0.0
19/04:30am 28.2 31.3 21.0 65 4.8 NW 6 11 3 6 1010.6 1008.3 0.0
19/04:00am 28.5 31.1 20.5 62 5.3 NNW 7 7 4 4 1010.4 1008.1 0.0
19/03:30am 28.8 31.2 20.0 59 5.8 NNW 7 9 4 5 1010.4 1008.1 0.0
19/03:00am 30.1 32.3 20.4 56 6.5 NW 9 11 5 6 1010.6 1008.3 0.0
19/02:30am 30.1 31.8 20.1 55 6.7 NNW 11 15 6 8 1010.7 1008.4 0.0
19/02:00am 29.9 31.5 19.9 55 6.6 NNW 11 13 6 7 1010.7 1008.4 0.0
19/01:30am 29.9 32.1 19.6 54 6.8 N 7 11 4 6 1010.7 1008.4 0.0
19/01:00am 30.1 32.0 19.8 54 6.8 NNW 9 11 5 6 1010.7 1008.4 0.0
19/12:30am 30.3 32.5 19.6 52 7.1 N 7 11 4 6 1010.9 1008.6 0.0
19/12:00am 30.1 31.9 19.5 53 7.0 N 9 9 5 5 1011.0 1008.7 0.0
 
Date/Time
EST
Temp
°C
App
Temp
°C
Dew
Point
°C
Rel
Hum
%
Delta-T
°C
Wind Press
QNH
hPa
Press
MSL
hPa
Rain since
9am
mm
Dir  Spd
km/h
Gust
km/h
Spd
kts
Gust
kts
18/11:30pm 30.6 32.1 19.0 50 7.6 NNW 9 13 5 7 1011.1 1008.8 0.0
18/11:00pm 31.0 32.9 19.0 48 7.9 N 7 11 4 6 1011.0 1008.7 0.0
18/10:30pm 31.5 32.6 18.8 46 8.3 N 11 15 6 8 1010.9 1008.6 0.0
18/10:00pm 31.8 33.2 18.7 45 8.6 N 9 13 5 7 1010.7 1008.4 0.0
18/09:30pm 31.9 33.0 18.8 45 8.6 N 11 15 6 8 1010.6 1008.3 0.0
18/09:00pm 32.2 32.9 18.8 45 8.8 NNE 13 17 7 9 1010.3 1008.0 0.0
18/08:30pm 32.6 33.3 18.0 41 9.5 NNE 11 13 6 7 1010.3 1008.0 0.0
18/08:00pm 33.3 34.0 17.9 40 10.1 NE 11 13 6 7 1009.9 1007.6 0.0
18/07:30pm 34.1 34.0 16.9 36 11.1 NNE 13 17 7 9 1009.7 1007.4 0.0
18/07:00pm 35.1 35.0 16.9 34 11.8 NNE 13 17 7 9 1009.1 1006.8 0.0
18/06:30pm 36.0 35.4 16.7 31 12.5 NE 15 20 8 11 1008.8 1006.5 0.0
18/06:00pm 36.5 36.3 16.6 30 12.9 NNE 13 17 7 9 1008.6 1006.3 0.0
18/05:30pm 36.3 36.0 16.5 31 12.8 ENE 13 17 7 9 1008.8 1006.5 0.0
18/05:00pm 37.7 37.1 16.6 28 13.7 NNE 15 24 8 13 1008.9 1006.6 0.0
18/04:30pm 37.2 37.6 16.2 29 13.5 WNW 9 17 5 9 1009.1 1006.8 0.0
18/04:00pm 37.3 37.1 16.8 29 13.3 WNW 13 26 7 14 1009.3 1007.1 0.0
18/03:30pm 37.8 38.0 17.7 30 13.2 NW 13 28 7 15 1009.8 1007.5 0.0
18/03:00pm 37.9 38.0 18.3 31 13.0 NNW 15 24 8 13 1010.1 1007.8 0.0
18/02:30pm 37.0 36.4 17.6 32 12.7 NNW 17 26 9 14 1010.6 1008.3 0.0
18/02:00pm 36.2 35.1 16.4 31 12.8 NNW 17 35 9 19 1011.1 1008.8 0.0
18/01:30pm 36.1 34.4 16.3 31 12.7 N 20 33 11 18 1011.7 1009.4 0.0
18/01:00pm 35.5 33.6 17.7 35 11.7 NNW 24 39 13 21 1012.1 1009.8 0.0
18/12:30pm 35.3 34.5 18.0 36 11.4 NNW 19 35 10 19 1012.6 1010.4 0.0
18/12:00pm 34.7 33.5 18.3 38 10.8 NNW 22 32 12 17 1013.2 1010.9 0.0
18/11:30am 33.7 33.7 19.0 42 9.7 NNW 17 30 9 16 1013.5 1011.2 0.0
18/11:00am 33.7 34.3 19.4 43 9.5 N 15 24 8 13 1013.8 1011.5 0.0
18/10:30am 32.4 32.0 18.9 44 8.9 NNW 19 28 10 15 1013.9 1011.6 0.0
18/10:00am 31.7 31.5 19.3 47 8.2 N 19 30 10 16 1014.1 1011.8 0.0
18/09:30am 30.9 31.2 19.6 51 7.5 N 17 24 9 13 1014.3 1012.0 0.0
18/09:00am 30.2 30.9 19.6 53 7.0 N 15 28 8 15 1014.3 1012.0 0.0
18/08:30am 29.1 29.6 20.0 58 6.0 N 17 24 9 13 1014.2 1011.9 0.0
18/08:00am 28.1 29.5 20.4 63 5.1 NNE 13 22 7 12 1014.1 1011.8 0.0
18/07:30am 27.1 28.2 20.4 66 4.4 N 15 20 8 11 1013.6 1011.3 0.0
18/07:00am 25.8 28.6 20.8 74 3.3 N 7 13 4 7 1013.3 1011.0 0.0
18/06:30am 24.3 27.1 20.8 81 2.3 N 7 9 4 5 1012.7 1010.5 0.0
18/06:00am 24.3 26.7 20.8 81 2.3 N 9 13 5 7 1012.4 1010.2 0.0
18/05:30am 24.6 27.0 20.9 80 2.5 NNW 9 17 5 9 1012.1 1009.8 0.0
18/05:00am 24.4 26.8 20.9 81 2.3 NNW 9 13 5 7 1011.9 1009.6 0.0
18/04:30am 24.4 27.1 20.7 80 2.4 N 7 11 4 6 1011.8 1009.5 0.0
18/04:00am 24.6 26.8 21.1 81 2.3 N 11 17 6 9 1011.5 1009.2 0.0
18/03:30am 24.8 27.3 21.1 80 2.5 N 9 13 5 7 1011.6 1009.3 0.0
18/03:00am 25.0 27.5 21.1 79 2.6 N 9 15 5 8 1011.6 1009.3 0.0
18/02:30am 25.3 27.5 21.2 78 2.7 N 11 17 6 9 1011.6 1009.3 0.0
18/02:00am 25.4 27.3 21.3 78 2.7 N 13 19 7 10 1011.8 1009.5 0.0
18/01:30am 25.6 27.9 21.3 77 2.9 N 11 20 6 11 1011.7 1009.4 0.0
18/01:00am 25.8 28.0 21.2 76 3.1 N 11 17 6 9 1011.7 1009.4 0.0
18/12:30am 26.1 28.2 20.9 73 3.5 N 11 17 6 9 1011.7 1009.4 0.0
18/12:00am 26.4 28.2 21.2 73 3.5 N 13 19 7 10 1011.7 1009.4 0.0
 
Date/Time
EST
Temp
°C
App
Temp
°C
Dew
Point
°C
Rel
Hum
%
Delta-T
°C
Wind Press
QNH
hPa
Press
MSL
hPa
Rain since
9am
mm
Dir  Spd
km/h
Gust
km/h
Spd
kts
Gust
kts
17/11:30pm 26.7 28.9 21.2 72 3.7 N 11 17 6 9 1011.9 1009.6 0.0
17/11:00pm 26.7 29.3 21.9 75 3.2 NNE 11 15 6 8 1011.9 1009.6 0.0
17/10:30pm 26.9 29.3 22.3 76 3.1 NNE 13 17 7 9 1011.8 1009.5 0.0
17/10:00pm 27.3 29.6 22.0 73 3.6 NNE 13 17 7 9 1011.9 1009.6 0.0
17/09:30pm 27.5 29.4 22.0 72 3.7 N 15 20 8 11 1012.0 1009.7 0.0
17/09:00pm 27.6 30.6 21.9 71 3.9 N 9 13 5 7 1011.5 1009.2 0.0
17/08:30pm 28.4 29.5 21.2 65 4.8 N 17 28 9 15 1011.6 1009.3 0.0
17/08:00pm 29.2 29.4 20.6 59 5.8 N 20 30 11 16 1011.3 1009.0 0.0
17/07:30pm 30.9 31.4 20.8 55 6.8 NNE 19 28 10 15 1010.5 1008.2 0.0
17/07:00pm 31.3 31.4 20.3 52 7.4 NNE 20 30 11 16 1010.3 1008.0 0.0
17/06:30pm 32.7 33.6 21.5 51 7.6 NNE 19 30 10 16 1009.9 1007.6 0.0
17/06:00pm 32.7 33.2 21.2 50 7.8 NNE 20 30 11 16 1009.7 1007.4 0.0
17/05:30pm 32.9 33.0 20.4 47 8.4 NNE 20 30 11 16 1009.3 1007.1 0.0
17/05:00pm 32.2 33.5 21.7 54 7.2 NE 17 22 9 12 1009.2 1007.0 0.0
17/04:30pm 31.4 30.4 20.4 52 7.4 NNE 26 35 14 19 1009.3 1007.1 0.0
17/04:00pm 30.6 28.5 20.5 54 6.8 NNE 32 44 17 24 1009.6 1007.3 0.0
17/03:30pm 31.4 29.2 20.7 53 7.2 NNE 33 50 18 27 1009.9 1007.6 0.0
17/03:27pm 32.1 30.5 20.7 51 7.7 NNE 30 50 16 27 1009.8 1007.5 0.0
17/03:00pm 33.4 34.1 21.2 48 8.3 NNE 19 28 10 15 1009.8 1007.5 0.0
17/02:30pm 32.2 31.7 20.8 51 7.7 NNE 24 37 13 20 1010.4 1008.1 0.0
17/02:14pm 32.4 31.3 21.0 51 7.7 NNE 28 46 15 25 1010.4 1008.1 0.0
17/02:00pm 33.8 33.0 20.9 46 8.8 NNE 26 35 14 19 1010.2 1007.9 0.0
17/01:30pm 34.0 34.3 20.7 45 9.0 NNE 20 32 11 17 1010.5 1008.2 0.0
17/01:00pm 33.5 33.1 21.0 48 8.5 N 24 37 13 20 1010.8 1008.5 0.0
17/12:30pm 33.1 32.2 20.6 47 8.4 NNE 26 41 14 22 1011.0 1008.7 0.0
17/12:00pm 33.3 32.1 20.8 48 8.5 NNE 28 39 15 21 1011.1 1008.8 0.0
17/11:30am 31.8 31.8 20.1 50 7.8 N 20 35 11 19 1011.5 1009.2 0.0
17/11:00am 32.4 32.0 21.0 51 7.7 N 24 37 13 20 1011.7 1009.4 0.0
17/10:30am 30.3 30.1 20.5 55 6.6 N 22 32 12 17 1011.7 1009.4 0.0
17/10:00am 31.1 30.7 21.0 55 6.8 NNE 24 39 13 21 1011.7 1009.4 0.0
17/09:30am 29.9 29.4 20.7 57 6.2 NNE 24 35 13 19 1011.8 1009.5 0.0
17/09:00am 29.1 28.5 21.3 62 5.3 NNE 26 37 14 20 1011.7 1009.4 -
17/08:30am 27.6 27.4 21.2 68 4.3 NNE 24 37 13 20 1011.8 1009.5 -
17/08:00am 27.1 26.3 20.9 69 4.1 NNE 26 37 14 20 1011.7 1009.4 -
17/07:30am 26.0 26.0 21.7 77 2.9 NNE 24 33 13 18 1011.7 1009.4 -
17/07:00am 25.8 26.7 21.5 77 2.9 NNE 19 28 10 15 1011.2 1008.9 -
17/06:30am 25.2 25.9 21.5 80 2.5 NNE 20 28 11 15 1010.9 1008.6 -
17/06:00am 24.9 26.5 21.4 81 2.3 NNE 15 22 8 12 1010.4 1008.1 -
17/05:30am 25.0 26.0 21.1 79 2.6 NNE 17 24 9 13 1009.9 1007.6 -
17/05:00am 25.1 25.8 21.2 79 2.6 NNE 19 24 10 13 1009.5 1007.2 -
17/04:30am 25.0 26.4 21.1 79 2.6 NNE 15 20 8 11 1008.8 1006.5 -
17/04:00am 24.9 27.0 21.0 79 2.6 NNE 11 17 6 9 1008.6 1006.3 -
17/03:30am 25.1 26.0 20.8 77 2.9 NNE 17 22 9 12 1008.5 1006.2 -
17/03:00am 25.4 25.8 20.6 75 3.2 NNE 19 28 10 15 1008.5 1006.2 0.0
17/02:30am 25.6 25.9 20.4 73 3.4 NNE 19 26 10 14 1008.3 1006.0 -
17/02:00am 25.6 27.0 20.4 73 3.4 NNE 13 20 7 11 1008.4 1006.1 -
17/01:30am 25.9 26.6 20.5 72 3.6 NNE 17 26 9 14 1008.7 1006.4 -
17/01:00am 26.1 26.2 20.4 71 3.8 NNE 20 30 11 16 1008.9 1006.6 -
17/12:30am 26.4 25.3 20.3 69 4.0 N 26 37 14 20 1009.1 1006.8 -
17/12:00am 26.9 25.9 20.5 68 4.3 NNE 26 41 14 22 1009.3 1007.1 -
 
Date/Time
EST
Temp
°C
App
Temp
°C
Dew
Point
°C
Rel
Hum
%
Delta-T
°C
Wind Press
QNH
hPa
Press
MSL
hPa
Rain since
9am
mm
Dir  Spd
km/h
Gust
km/h
Spd
kts
Gust
kts
16/11:30pm 27.6 26.8 20.9 67 4.5 NNE 26 41 14 22 1009.6 1007.3 -
16/11:00pm 28.2 28.9 21.5 67 4.5 NNE 20 28 11 15 1009.5 1007.2 -
16/10:30pm 28.7 29.3 21.0 63 5.2 NNE 19 28 10 15 1009.2 1007.0 -
16/10:00pm 27.8 31.0 22.3 72 3.8 E 9 13 5 7 1008.9 1006.6 -
16/09:30pm 27.8 30.9 22.1 71 3.9 E 9 13 5 7 1008.5 1006.2 -
16/09:00pm 28.4 31.0 21.9 68 4.4 E 11 17 6 9 1008.3 1006.0 0.0
16/08:30pm 29.7 31.5 21.1 60 5.8 E 13 20 7 11 1008.0 1005.7 -
16/08:00pm 30.4 33.0 21.2 58 6.2 ENE 9 13 5 7 1007.7 1005.4 -
16/07:30pm 31.5 32.4 20.1 50 7.6 NE 15 20 8 11 1007.2 1004.9 -
16/07:00pm 31.8 33.2 20.4 51 7.7 NE 13 20 7 11 1007.0 1004.7 -
16/06:30pm 31.6 33.8 21.2 54 7.1 E 11 19 6 10 1006.9 1004.6 -
16/06:00pm 32.8 32.1 20.3 47 8.4 NNE 24 32 13 17 1006.4 1004.1 -
16/05:30pm 33.4 33.8 19.8 44 9.1 NNE 17 22 9 12 1005.9 1003.5 -
16/05:00pm 34.0 34.5 19.3 42 9.8 NE 15 24 8 13 1005.4 1003.1 -
16/04:30pm 34.3 34.7 19.9 42 9.7 NE 17 24 9 13 1005.5 1003.2 -
16/04:00pm 34.7 35.3 19.5 40 10.2 NNE 15 24 8 13 1005.6 1003.3 -
16/03:30pm 34.3 34.0 19.1 40 10.1 NE 19 28 10 15 1006.2 1003.9 -
16/03:00pm 34.7 36.2 20.6 43 9.6 NNE 13 20 7 11 1006.5 1004.2 -

Other Formats:

Comma delimited format used in spreadsheet applications
http://www.bom.gov.au/fwo/IDQ60801/IDQ60801.94336.axf

JavaScript Object Notation format (JSON) in row-major order
http://www.bom.gov.au/fwo/IDQ60801/IDQ60801.94336.json